createdAt,value
2018-03-26T00:02:24.448Z,15.20
2018-03-26T00:04:50.612Z,15.10
2018-03-26T00:07:16.752Z,14.53
2018-03-26T00:09:42.926Z,15.37
2018-03-26T00:12:09.053Z,14.33
2018-03-26T00:14:35.190Z,14.70
2018-03-26T00:17:01.336Z,14.40
2018-03-26T00:19:27.448Z,16.10
2018-03-26T00:21:53.544Z,15.00
2018-03-26T00:24:19.736Z,16.67
2018-03-26T00:26:45.869Z,16.87
2018-03-26T00:29:12.016Z,16.00
2018-03-26T00:31:38.878Z,18.00
2018-03-26T00:34:05.067Z,16.93
2018-03-26T00:36:31.200Z,17.73
2018-03-26T00:38:57.360Z,17.30
2018-03-26T00:41:23.504Z,17.80
2018-03-26T00:43:49.640Z,18.73
2018-03-26T00:46:15.761Z,18.50
2018-03-26T00:48:41.886Z,17.87
2018-03-26T00:51:08.027Z,18.27
2018-03-26T00:53:42.441Z,17.47
2018-03-26T00:56:08.586Z,18.63
2018-03-26T00:58:34.742Z,19.07
2018-03-26T01:01:01.645Z,18.63
2018-03-26T01:03:27.794Z,19.50
2018-03-26T01:05:54.679Z,17.90
2018-03-26T01:08:20.803Z,16.27
2018-03-26T01:10:46.901Z,16.90
2018-03-26T01:13:13.766Z,16.20
2018-03-26T01:15:39.955Z,15.53
2018-03-26T01:18:06.803Z,16.80
2018-03-26T01:20:33.681Z,18.43
2018-03-26T01:22:59.821Z,16.33
2018-03-26T01:25:25.963Z,15.20
2018-03-26T01:27:52.139Z,16.17
2018-03-26T01:30:19.078Z,16.50
2018-03-26T01:32:46.004Z,15.30
2018-03-26T01:35:12.152Z,16.23
2018-03-26T01:37:39.032Z,17.73
2018-03-26T01:40:05.183Z,16.30
2018-03-26T01:42:31.391Z,17.00
2018-03-26T01:44:57.536Z,16.10
2018-03-26T01:47:23.732Z,16.13
2018-03-26T01:49:49.916Z,16.07
2018-03-26T01:52:16.092Z,16.33
2018-03-26T01:54:42.234Z,16.00
2018-03-26T01:57:08.355Z,17.87
2018-03-26T01:59:34.487Z,15.70
2018-03-26T02:02:00.625Z,16.63
2018-03-26T02:04:26.740Z,17.33
2018-03-26T02:06:52.888Z,15.43
2018-03-26T02:09:19.076Z,16.23
2018-03-26T02:11:45.208Z,17.03
2018-03-26T02:14:11.368Z,16.67
2018-03-26T02:16:37.502Z,17.50
2018-03-26T02:19:03.711Z,16.90
2018-03-26T02:21:29.845Z,18.00
2018-03-26T02:23:56.029Z,16.70
2018-03-26T02:26:22.157Z,16.77
2018-03-26T02:28:48.340Z,18.90
2018-03-26T02:31:14.485Z,19.10
2018-03-26T02:33:41.418Z,19.27
2018-03-26T02:36:08.292Z,16.70
2018-03-26T02:38:34.407Z,17.77
2018-03-26T02:41:01.313Z,16.67
2018-03-26T02:43:28.182Z,16.57
2018-03-26T02:45:55.080Z,16.70
2018-03-26T02:48:21.204Z,16.63
2018-03-26T02:50:47.454Z,16.27
2018-03-26T02:53:13.594Z,17.30
2018-03-26T02:55:39.753Z,16.50
2018-03-26T02:58:05.876Z,17.43
2018-03-26T03:00:32.762Z,17.80
2018-03-26T03:02:58.858Z,17.07
2018-03-26T03:05:25.017Z,16.83
2018-03-26T03:07:51.209Z,16.70
2018-03-26T03:10:17.362Z,17.47
2018-03-26T03:12:43.519Z,17.90
2018-03-26T03:15:10.386Z,16.73
2018-03-26T03:17:37.271Z,17.97
2018-03-26T03:20:03.413Z,19.23
2018-03-26T03:22:29.621Z,18.83
2018-03-26T03:24:55.768Z,19.80
2018-03-26T03:27:21.936Z,19.73
2018-03-26T03:29:48.802Z,19.60
2018-03-26T03:32:14.925Z,20.83
2018-03-26T03:34:41.041Z,20.67
2018-03-26T03:37:07.202Z,19.33
2018-03-26T03:39:33.338Z,19.53
2018-03-26T03:41:59.505Z,19.33
2018-03-26T03:44:26.377Z,19.50
2018-03-26T03:46:52.493Z,20.40
2018-03-26T03:49:18.627Z,21.17
2018-03-26T03:51:44.717Z,20.50
2018-03-26T03:54:10.885Z,20.00
2018-03-26T03:56:37.064Z,19.80
2018-03-26T03:59:03.245Z,20.13
2018-03-26T04:01:29.390Z,19.13
2018-03-26T04:03:55.505Z,19.43
2018-03-26T04:06:21.647Z,17.60
2018-03-26T04:08:47.813Z,18.50
2018-03-26T04:11:14.691Z,17.77
2018-03-26T04:13:40.846Z,16.50
2018-03-26T04:16:07.021Z,18.30
2018-03-26T04:18:33.885Z,18.03
2018-03-26T04:21:00.008Z,17.57
2018-03-26T04:23:26.173Z,17.30
2018-03-26T04:25:52.307Z,16.80
2018-03-26T04:28:18.451Z,18.10
2018-03-26T04:30:45.430Z,18.13
2018-03-26T04:33:11.601Z,17.57
2018-03-26T04:35:37.743Z,17.80
2018-03-26T04:38:03.910Z,17.57
2018-03-26T04:40:30.073Z,18.87
2018-03-26T04:42:56.213Z,16.87
2018-03-26T04:45:23.079Z,18.93
2018-03-26T04:47:49.975Z,17.30
2018-03-26T04:50:16.140Z,17.90
2018-03-26T04:52:43.056Z,17.57
2018-03-26T04:55:09.173Z,19.47
2018-03-26T04:57:35.365Z,19.40
2018-03-26T05:00:01.545Z,20.63
2018-03-26T05:02:27.720Z,21.60
2018-03-26T05:04:53.872Z,20.50
2018-03-26T05:07:20.055Z,19.23
2018-03-26T05:09:46.983Z,20.00
2018-03-26T05:12:13.826Z,18.80
2018-03-26T05:14:39.998Z,19.00
2018-03-26T05:17:06.121Z,19.80
2018-03-26T05:19:32.254Z,19.60
2018-03-26T05:21:58.350Z,18.00
2018-03-26T05:24:25.218Z,17.73
2018-03-26T05:26:51.379Z,19.40
2018-03-26T05:29:17.538Z,18.17
2018-03-26T05:31:44.453Z,18.90
2018-03-26T05:34:10.613Z,19.53
2018-03-26T05:36:37.576Z,18.90
2018-03-26T05:39:03.818Z,20.00
2018-03-26T05:41:30.010Z,19.57
2018-03-26T05:43:56.898Z,18.93
2018-03-26T05:46:23.066Z,20.03
2018-03-26T05:48:50.031Z,18.63
2018-03-26T05:51:16.969Z,19.40
2018-03-26T05:53:43.843Z,18.73
2018-03-26T05:56:09.982Z,19.07
2018-03-26T05:58:36.107Z,19.03
2018-03-26T06:01:02.291Z,20.00
2018-03-26T06:03:29.184Z,19.53
2018-03-26T06:05:55.342Z,18.30
2018-03-26T06:08:21.455Z,19.90
2018-03-26T06:10:47.611Z,18.80
2018-03-26T06:13:14.548Z,19.03
2018-03-26T06:15:40.739Z,18.60
2018-03-26T06:18:06.924Z,19.30
2018-03-26T06:20:33.917Z,18.63
2018-03-26T06:23:00.085Z,18.97
2018-03-26T06:25:27.053Z,18.80
2018-03-26T06:27:53.190Z,18.30
2018-03-26T06:30:19.441Z,19.57
2018-03-26T06:32:45.646Z,19.20
2018-03-26T06:35:11.810Z,18.90
2018-03-26T06:37:44.253Z,18.57
2018-03-26T06:40:10.460Z,19.40
2018-03-26T06:42:38.180Z,18.37
2018-03-26T06:45:05.126Z,17.73
2018-03-26T06:47:31.350Z,17.90
2018-03-26T06:49:57.487Z,18.20
2018-03-26T06:52:24.390Z,17.73
2018-03-26T06:54:50.545Z,17.10
2018-03-26T06:57:16.665Z,16.93
2018-03-26T06:59:42.804Z,19.63
2018-03-26T07:02:09.007Z,20.37
2018-03-26T07:04:35.155Z,21.77
2018-03-26T07:07:01.356Z,19.90
2018-03-26T07:09:27.530Z,19.40
2018-03-26T07:11:54.421Z,18.73
2018-03-26T07:14:20.573Z,20.80
2018-03-26T07:16:46.701Z,20.50
2018-03-26T07:19:12.886Z,21.10
2018-03-26T07:21:39.097Z,19.60
2018-03-26T07:24:05.182Z,19.30
2018-03-26T07:26:31.415Z,19.90
2018-03-26T07:28:57.586Z,19.87
2018-03-26T07:31:24.474Z,18.97
2018-03-26T07:33:50.621Z,21.50
2018-03-26T07:36:17.543Z,20.03
2018-03-26T07:38:43.658Z,20.23
2018-03-26T07:41:09.785Z,20.60
2018-03-26T07:43:35.967Z,20.03
2018-03-26T07:46:02.904Z,19.97
2018-03-26T07:48:29.103Z,21.60
2018-03-26T07:50:55.234Z,21.30
2018-03-26T07:53:21.393Z,19.93
2018-03-26T07:55:48.266Z,21.80
2018-03-26T07:58:14.466Z,22.77
2018-03-26T08:00:41.337Z,22.20
2018-03-26T08:03:07.493Z,21.13
2018-03-26T08:05:33.642Z,22.63
2018-03-26T08:08:00.547Z,22.07
2018-03-26T08:10:26.684Z,21.60
2018-03-26T08:12:52.855Z,21.80
2018-03-26T08:15:19.743Z,20.87
2018-03-26T08:17:45.889Z,22.53
2018-03-26T08:20:12.041Z,23.57
2018-03-26T08:22:38.211Z,23.43
2018-03-26T08:25:04.436Z,21.43
2018-03-26T08:27:30.572Z,21.30
2018-03-26T08:29:56.698Z,21.00
2018-03-26T08:32:22.904Z,23.40
2018-03-26T08:34:49.803Z,22.70
2018-03-26T08:37:15.918Z,24.87
2018-03-26T08:39:42.025Z,23.83
2018-03-26T08:42:08.168Z,24.50
2018-03-26T08:44:34.370Z,25.30
2018-03-26T08:47:00.525Z,24.60
2018-03-26T08:49:26.687Z,25.93
2018-03-26T08:51:53.550Z,22.70
2018-03-26T08:54:20.405Z,21.77
2018-03-26T08:56:46.560Z,24.20
2018-03-26T08:59:12.672Z,24.97
2018-03-26T09:01:38.815Z,27.60
2018-03-26T09:04:05.028Z,25.70
2018-03-26T09:06:31.222Z,26.40
2018-03-26T09:08:57.413Z,26.77
2018-03-26T09:11:24.273Z,28.13
2018-03-26T09:13:50.425Z,26.53
2018-03-26T09:16:16.570Z,25.60
2018-03-26T09:18:42.740Z,25.73
2018-03-26T09:21:08.893Z,23.00
2018-03-26T09:23:35.807Z,22.93
2018-03-26T09:26:01.972Z,23.50
2018-03-26T09:28:28.098Z,23.17
2018-03-26T09:30:54.993Z,22.00
2018-03-26T09:33:21.171Z,23.37
2018-03-26T09:35:48.049Z,24.43
2018-03-26T09:38:14.195Z,24.40
2018-03-26T09:40:40.361Z,23.50
2018-03-26T09:43:07.257Z,23.73
2018-03-26T09:45:33.445Z,25.53
2018-03-26T09:48:00.351Z,25.00
2018-03-26T09:50:26.536Z,25.33
2018-03-26T09:52:52.642Z,26.53
2018-03-26T09:55:19.624Z,25.37
2018-03-26T09:57:45.792Z,26.00
2018-03-26T10:00:12.733Z,27.23
2018-03-26T10:02:38.871Z,27.57
2018-03-26T10:05:05.831Z,27.40
2018-03-26T10:07:32.037Z,26.73
2018-03-26T10:09:58.980Z,27.27
2018-03-26T10:12:25.868Z,27.67
2018-03-26T10:14:52.033Z,27.83
2018-03-26T10:17:18.960Z,29.00
2018-03-26T10:19:45.170Z,27.27
2018-03-26T10:22:12.032Z,29.03
2018-03-26T10:24:38.185Z,29.40
2018-03-26T10:27:04.400Z,27.60
2018-03-26T10:29:30.546Z,29.20
2018-03-26T10:31:56.726Z,28.63
2018-03-26T10:34:22.895Z,28.23
2018-03-26T10:36:49.038Z,32.57
2018-03-26T10:39:15.948Z,32.27
2018-03-26T10:41:42.840Z,33.20
2018-03-26T10:44:09.074Z,31.60
2018-03-26T10:46:35.292Z,32.00
2018-03-26T10:49:01.513Z,35.57
2018-03-26T10:51:27.685Z,37.37
2018-03-26T10:53:53.862Z,37.33
2018-03-26T10:56:20.738Z,35.17
2018-03-26T10:58:46.870Z,37.30
2018-03-26T11:01:13.031Z,35.17
2018-03-26T11:03:39.197Z,35.57
2018-03-26T11:06:05.424Z,35.37
2018-03-26T11:08:32.278Z,38.97
2018-03-26T11:10:58.451Z,35.80
2018-03-26T11:13:24.645Z,36.37
2018-03-26T11:15:50.820Z,37.00
2018-03-26T11:18:16.953Z,35.67
2018-03-26T11:20:43.119Z,37.97
2018-03-26T11:23:09.280Z,35.03
2018-03-26T11:25:35.475Z,34.20
2018-03-26T11:28:01.660Z,34.73
2018-03-26T11:30:27.805Z,34.67
2018-03-26T11:32:54.004Z,36.70
2018-03-26T11:35:20.198Z,33.90
2018-03-26T11:37:46.356Z,34.93
2018-03-26T11:40:13.239Z,33.30
2018-03-26T11:42:39.366Z,33.63
2018-03-26T11:45:06.265Z,35.43
2018-03-26T11:47:32.414Z,35.47
2018-03-26T11:49:58.569Z,33.80
2018-03-26T11:52:24.724Z,32.07
2018-03-26T11:54:50.914Z,34.73
2018-03-26T11:57:17.046Z,33.20
2018-03-26T11:59:43.192Z,35.80
2018-03-26T12:02:09.336Z,31.77
2018-03-26T12:04:35.512Z,32.93
2018-03-26T12:07:02.385Z,32.90
2018-03-26T12:09:28.538Z,31.53
2018-03-26T12:11:54.696Z,30.27
2018-03-26T12:14:20.885Z,29.13
2018-03-26T12:16:47.047Z,28.50
2018-03-26T12:19:13.181Z,28.63
2018-03-26T12:21:40.045Z,26.93
2018-03-26T12:24:18.624Z,28.67
2018-03-26T12:26:44.798Z,25.80
2018-03-26T12:29:23.248Z,23.13
2018-03-26T12:31:49.437Z,20.90
2018-03-26T12:34:27.893Z,19.63
2018-03-26T12:36:54.120Z,18.23
2018-03-26T12:39:20.320Z,19.10
2018-03-26T12:41:46.488Z,21.80
2018-03-26T12:44:24.992Z,24.53
2018-03-26T12:46:51.201Z,21.50
2018-03-26T12:49:17.368Z,22.57
2018-03-26T12:51:55.884Z,23.37
2018-03-26T12:54:21.986Z,20.40
2018-03-26T12:59:46.178Z,19.27
2018-03-26T13:02:29.758Z,19.60
2018-03-26T13:04:56.653Z,19.20
2018-03-26T13:07:22.786Z,18.83
2018-03-26T13:09:48.992Z,18.80
2018-03-26T13:12:15.195Z,20.83
2018-03-26T13:14:42.105Z,20.50
2018-03-26T13:17:08.335Z,22.00
2018-03-26T13:19:34.516Z,21.40
2018-03-26T13:22:00.673Z,19.50
2018-03-26T13:24:26.836Z,21.50
2018-03-26T13:26:53.732Z,21.90
2018-03-26T13:29:19.973Z,21.13
2018-03-26T13:31:46.148Z,22.17
2018-03-26T13:34:13.059Z,21.37
2018-03-26T13:36:39.175Z,20.80
2018-03-26T13:39:05.325Z,23.30
2018-03-26T13:41:31.476Z,22.53
2018-03-26T13:43:58.490Z,21.33
2018-03-26T13:46:24.646Z,22.60
2018-03-26T13:48:54.562Z,21.60
2018-03-26T13:51:21.461Z,21.47
2018-03-26T13:53:47.661Z,20.33
2018-03-26T13:56:13.887Z,20.77
2018-03-26T13:58:40.097Z,20.70
2018-03-26T14:01:07.088Z,23.47
2018-03-26T14:03:33.245Z,21.50
2018-03-26T14:06:00.158Z,23.00
2018-03-26T14:08:38.541Z,23.03
2018-03-26T14:11:16.857Z,22.90
2018-03-26T14:13:55.153Z,23.30
2018-03-26T14:16:33.571Z,22.53
2018-03-26T14:18:59.723Z,24.23
2018-03-26T14:21:25.915Z,23.40
2018-03-26T14:23:52.092Z,23.60
2018-03-26T14:26:18.258Z,23.60
2018-03-26T14:28:45.185Z,23.70
2018-03-26T14:31:12.114Z,23.00
2018-03-26T14:33:38.296Z,23.23
2018-03-26T14:36:04.448Z,23.80
2018-03-26T14:38:30.638Z,23.17
2018-03-26T14:40:56.794Z,22.50
2018-03-26T14:43:23.075Z,23.27
2018-03-26T14:45:50.053Z,21.30
2018-03-26T14:48:16.273Z,23.47
2018-03-26T14:50:42.396Z,23.50
2018-03-26T14:53:08.568Z,23.40
2018-03-26T14:55:34.733Z,22.33
2018-03-26T14:58:01.667Z,22.13
2018-03-26T15:00:28.653Z,26.50
2018-03-26T15:02:54.848Z,24.57
2018-03-26T15:05:21.752Z,25.83
2018-03-26T15:07:47.920Z,25.23
2018-03-26T15:10:14.812Z,24.17
2018-03-26T15:12:40.959Z,26.67
2018-03-26T15:15:07.126Z,26.73
2018-03-26T15:17:34.015Z,24.40
2018-03-26T15:20:00.158Z,25.90
2018-03-26T15:22:26.331Z,25.30
2018-03-26T15:24:52.539Z,26.07
2018-03-26T15:27:19.572Z,25.50
2018-03-26T15:29:45.637Z,24.93
2018-03-26T15:32:11.839Z,25.40
2018-03-26T15:34:38.761Z,24.23
2018-03-26T15:37:04.926Z,24.83
2018-03-26T15:39:31.900Z,27.23
2018-03-26T15:41:58.073Z,28.50
2018-03-26T15:44:24.269Z,27.70
2018-03-26T15:46:50.436Z,26.97
2018-03-26T15:49:17.386Z,27.00
2018-03-26T15:51:44.304Z,26.40
2018-03-26T15:54:11.265Z,26.90
2018-03-26T15:56:37.478Z,26.90
2018-03-26T15:59:04.365Z,26.90
2018-03-26T16:01:30.576Z,24.30
2018-03-26T16:03:57.454Z,26.03
2018-03-26T16:06:23.606Z,24.47
2018-03-26T16:08:49.794Z,25.90
2018-03-26T16:11:15.970Z,25.87
2018-03-26T16:13:42.173Z,23.57
2018-03-26T16:16:08.589Z,24.90
2018-03-26T16:18:34.784Z,23.47
2018-03-26T16:21:01.029Z,25.17
2018-03-26T16:23:27.235Z,24.63
2018-03-26T16:25:54.144Z,24.97
2018-03-26T16:28:20.315Z,25.70
2018-03-26T16:30:47.235Z,24.93
2018-03-26T16:33:13.372Z,25.30
2018-03-26T16:35:39.572Z,26.03
2018-03-26T16:38:05.808Z,26.70
2018-03-26T16:40:31.997Z,25.53
2018-03-26T16:43:04.168Z,25.87
2018-03-26T16:45:30.300Z,28.67
2018-03-26T16:47:56.523Z,28.93
2018-03-26T16:50:22.732Z,26.00
2018-03-26T16:52:48.954Z,26.23
2018-03-26T16:55:15.879Z,27.90
2018-03-26T16:57:42.042Z,28.77
2018-03-26T17:00:08.229Z,35.73
2018-03-26T17:02:34.472Z,37.93
2018-03-26T17:05:01.402Z,38.10
2018-03-26T17:07:27.568Z,38.77
2018-03-26T17:09:53.793Z,35.30
2018-03-26T17:12:19.955Z,37.70
2018-03-26T17:14:46.171Z,32.97
2018-03-26T17:17:12.384Z,31.60
2018-03-26T17:19:38.547Z,34.03
2018-03-26T17:22:04.793Z,36.00
2018-03-26T17:24:30.978Z,37.13
2018-03-26T17:26:57.160Z,37.37
2018-03-26T17:29:23.327Z,34.90
2018-03-26T17:31:49.466Z,30.33
2018-03-26T17:34:15.668Z,29.30
2018-03-26T17:36:41.881Z,31.53
2018-03-26T17:39:08.722Z,28.80
2018-03-26T17:41:35.578Z,28.80
2018-03-26T17:44:01.725Z,30.40
2018-03-26T17:46:27.884Z,26.77
2018-03-26T17:48:54.122Z,27.30
2018-03-26T17:51:20.275Z,30.50
2018-03-26T17:53:47.164Z,26.40
2018-03-26T17:56:13.290Z,26.90
2018-03-26T17:58:39.471Z,24.90
2018-03-26T18:01:06.438Z,26.17
2018-03-26T18:03:32.645Z,23.87
2018-03-26T18:05:59.598Z,25.13
2018-03-26T18:08:25.834Z,24.70
2018-03-26T18:10:52.000Z,26.40
2018-03-26T18:13:18.134Z,27.50
2018-03-26T18:15:44.306Z,26.00
2018-03-26T18:18:11.240Z,26.30
2018-03-26T18:20:38.110Z,25.87
2018-03-26T18:23:04.262Z,26.30
2018-03-26T18:25:30.469Z,25.87
2018-03-26T18:27:56.623Z,27.00
2018-03-26T18:30:22.778Z,26.60
2018-03-26T18:32:48.895Z,24.70
2018-03-26T18:35:15.812Z,27.30
2018-03-26T18:37:41.945Z,28.37
2018-03-26T18:40:08.093Z,28.67
2018-03-26T18:42:35.027Z,28.93
2018-03-26T18:45:01.957Z,28.57
2018-03-26T18:47:28.168Z,28.50
2018-03-26T18:49:54.381Z,30.30
2018-03-26T18:52:20.605Z,29.30
2018-03-26T18:54:46.855Z,28.27
2018-03-26T18:57:13.033Z,28.70
2018-03-26T18:59:39.975Z,30.87
2018-03-26T19:02:06.200Z,29.73
2018-03-26T19:04:33.070Z,30.93
2018-03-26T19:06:59.257Z,29.27
2018-03-26T19:09:25.387Z,28.33
2018-03-26T19:11:51.590Z,27.33
2018-03-26T19:14:17.820Z,28.27
2018-03-26T19:16:44.080Z,31.07
2018-03-26T19:19:10.273Z,29.67
2018-03-26T19:21:36.413Z,31.00
2018-03-26T19:24:02.631Z,28.60
2018-03-26T19:26:28.802Z,29.93
2018-03-26T19:28:55.751Z,30.83
2018-03-26T19:31:22.658Z,28.57
2018-03-26T19:33:48.898Z,28.03
2018-03-26T19:36:15.113Z,27.90
2018-03-26T19:38:41.301Z,25.50
2018-03-26T19:41:07.534Z,28.03
2018-03-26T19:43:33.770Z,27.33
2018-03-26T19:45:59.928Z,25.93
2018-03-26T19:48:26.127Z,28.03
2018-03-26T19:50:52.271Z,25.30
2018-03-26T19:53:18.464Z,27.30
2018-03-26T19:55:44.588Z,28.17
2018-03-26T19:58:10.734Z,29.90
2018-03-26T20:00:36.876Z,28.30
2018-03-26T20:03:03.076Z,29.07
2018-03-26T20:05:29.249Z,29.40
2018-03-26T20:07:55.393Z,29.30
2018-03-26T20:10:21.597Z,28.37
2018-03-26T20:12:47.787Z,30.57
2018-03-26T20:15:13.965Z,30.50
2018-03-26T20:17:40.931Z,28.80
2018-03-26T20:20:07.912Z,28.90
2018-03-26T20:22:34.085Z,30.43
2018-03-26T20:25:00.940Z,28.47
2018-03-26T20:27:27.102Z,30.40
2018-03-26T20:29:53.289Z,29.83
2018-03-26T20:32:20.212Z,30.10
2018-03-26T20:34:46.389Z,29.63
2018-03-26T20:37:12.613Z,29.53
2018-03-26T20:39:39.525Z,30.20
2018-03-26T20:42:05.668Z,29.23
2018-03-26T20:44:31.885Z,30.20
2018-03-26T20:46:58.766Z,28.33
2018-03-26T20:49:24.891Z,28.17
2018-03-26T20:51:51.030Z,27.37
2018-03-26T20:54:17.177Z,29.03
2018-03-26T20:56:43.388Z,30.30
2018-03-26T20:59:09.568Z,32.10
2018-03-26T21:01:36.479Z,29.20
2018-03-26T21:04:02.690Z,31.37
2018-03-26T21:06:28.856Z,28.30
2018-03-26T21:08:55.034Z,28.07
2018-03-26T21:11:21.258Z,28.00
2018-03-26T21:13:47.517Z,29.40
2018-03-26T21:16:13.745Z,29.57
2018-03-26T21:18:39.932Z,29.80
2018-03-26T21:21:06.132Z,30.37
2018-03-26T21:23:32.291Z,28.20
2018-03-26T21:25:58.481Z,31.10
2018-03-26T21:28:25.390Z,29.43
2018-03-26T21:30:51.565Z,29.80
2018-03-26T21:33:17.721Z,28.67
2018-03-26T21:35:43.892Z,30.97
2018-03-26T21:38:10.093Z,30.00
2018-03-26T21:40:36.972Z,30.90
2018-03-26T21:43:03.137Z,29.93
2018-03-26T21:45:29.351Z,30.03
2018-03-26T21:47:56.220Z,30.40
2018-03-26T21:50:22.424Z,29.43
2018-03-26T21:52:49.336Z,30.13
2018-03-26T21:55:15.484Z,28.57
2018-03-26T21:57:42.447Z,29.10
2018-03-26T22:00:15.646Z,30.67
2018-03-26T22:02:41.875Z,27.73
2018-03-26T22:05:08.040Z,29.53
2018-03-26T22:07:34.241Z,31.27
2018-03-26T22:10:00.400Z,30.57
2018-03-26T22:12:26.559Z,29.87
2018-03-26T22:14:53.474Z,31.80
2018-03-26T22:17:19.643Z,30.10
2018-03-26T22:19:46.518Z,29.90
2018-03-26T22:22:12.716Z,25.80
2018-03-26T22:24:39.619Z,25.00
2018-03-26T22:27:05.766Z,23.40
2018-03-26T22:29:31.989Z,22.80
2018-03-26T22:31:58.216Z,24.80
2018-03-26T22:34:24.448Z,26.07
2018-03-26T22:36:50.733Z,25.83
2018-03-26T22:39:17.010Z,23.13
2018-03-26T22:41:43.279Z,25.80
2018-03-26T22:44:09.547Z,25.50
2018-03-26T22:46:35.810Z,24.87
2018-03-26T22:49:02.840Z,24.53
2018-03-26T22:51:29.854Z,25.87
2018-03-26T22:53:56.115Z,25.93
2018-03-26T22:56:22.383Z,26.80
2018-03-26T22:58:48.635Z,27.10
2018-03-26T23:01:14.923Z,27.67
2018-03-26T23:03:41.930Z,29.10
2018-03-26T23:06:08.190Z,27.23
2018-03-26T23:08:35.187Z,25.23
2018-03-26T23:11:01.479Z,27.53
2018-03-26T23:13:27.755Z,26.47
2018-03-26T23:15:54.026Z,26.87
2018-03-26T23:18:21.048Z,25.83
2018-03-26T23:20:48.060Z,26.90
2018-03-26T23:23:14.318Z,26.33
2018-03-26T23:25:40.615Z,26.70
2018-03-26T23:28:06.899Z,29.20
2018-03-26T23:30:33.903Z,26.97
2018-03-26T23:33:00.195Z,27.30
2018-03-26T23:35:26.464Z,27.87
2018-03-26T23:37:52.749Z,28.47
2018-03-26T23:40:19.753Z,27.90
2018-03-26T23:42:46.044Z,28.27
2018-03-26T23:45:12.320Z,29.07
2018-03-26T23:47:38.639Z,27.77
2018-03-26T23:50:04.907Z,28.37
2018-03-26T23:52:31.922Z,27.17
2018-03-26T23:54:58.179Z,27.97
2018-03-26T23:57:25.200Z,28.37
2018-03-26T23:59:51.497Z,28.87
